NKS119 KBWI-TJSJ
Flight info
| Callsign | NKS119 |
|---|---|
| Flight time | 3h 27m |
| Altitude | 38000 |
| Route | CONLE5 SCOOB DCT EARZZ DCT SKARP Y313 IDOLS DCT CANIT/N0455F370 DCT NUCAR Y355 OMALY/N0452F390 Y355 PLING RTE7 SAALR |
| Aircraft | A20N/M-SDE2E3FGHIRWXY/LB1 |
Departure
| Time | 2026-04-26 23:09 |
|---|---|
| Airport | Baltimore/Washington International Thurgood Marshall Airport (KBWI) |
Arrival
| Time | 2026-04-27 02:36 |
|---|---|
| Airport | Luis Munoz Marin International Airport (TJSJ) |
| Time | Latitude | Longitude | Altitude | Speed | Heading |
|---|---|---|---|---|---|
| 2026-04-26 22:52 | 39.17851 | -76.66491 | 149 ft | 0 kts | 40° |
| 2026-04-26 22:58 | 39.17842 | -76.66500 | 150 ft | 2 kts | 40° |
| 2026-04-26 22:58 | 39.17831 | -76.66513 | 150 ft | 2 kts | 44° |
| 2026-04-26 22:59 | 39.17820 | -76.66527 | 149 ft | 2 kts | 46° |
| 2026-04-26 22:59 | 39.17810 | -76.66541 | 149 ft | 2 kts | 50° |
| 2026-04-26 22:59 | 39.17802 | -76.66553 | 149 ft | 0 kts | 52° |
| 2026-04-26 22:59 | 39.17799 | -76.66558 | 149 ft | 0 kts | 53° |
| 2026-04-26 23:01 | 39.17800 | -76.66553 | 149 ft | 1 kts | 81° |
| 2026-04-26 23:02 | 39.17785 | -76.66528 | 149 ft | 6 kts | 141° |
| 2026-04-26 23:02 | 39.17743 | -76.66470 | 147 ft | 11 kts | 123° |
| 2026-04-26 23:02 | 39.17671 | -76.66440 | 146 ft | 14 kts | 208° |
| 2026-04-26 23:02 | 39.17580 | -76.66520 | 146 ft | 17 kts | 212° |
| 2026-04-26 23:03 | 39.17517 | -76.66652 | 146 ft | 19 kts | 275° |
| 2026-04-26 23:03 | 39.17530 | -76.66835 | 146 ft | 21 kts | 273° |
| 2026-04-26 23:03 | 39.17571 | -76.67022 | 146 ft | 21 kts | 310° |
| 2026-04-26 23:03 | 39.17694 | -76.67141 | 144 ft | 22 kts | 324° |
| 2026-04-26 23:04 | 39.17821 | -76.67258 | 141 ft | 22 kts | 324° |
| 2026-04-26 23:04 | 39.17950 | -76.67378 | 139 ft | 23 kts | 325° |
| 2026-04-26 23:04 | 39.18072 | -76.67488 | 139 ft | 19 kts | 324° |
| 2026-04-26 23:04 | 39.18161 | -76.67570 | 140 ft | 14 kts | 324° |
| 2026-04-26 23:05 | 39.18193 | -76.67667 | 137 ft | 10 kts | 262° |
| 2026-04-26 23:05 | 39.18235 | -76.67748 | 137 ft | 11 kts | 323° |
| 2026-04-26 23:05 | 39.18315 | -76.67821 | 136 ft | 16 kts | 324° |
| 2026-04-26 23:05 | 39.18422 | -76.67919 | 135 ft | 20 kts | 324° |
| 2026-04-26 23:06 | 39.18530 | -76.68019 | 132 ft | 13 kts | 323° |
| 2026-04-26 23:06 | 39.18569 | -76.68072 | 130 ft | 0 kts | 290° |
| 2026-04-26 23:07 | 39.18570 | -76.68080 | 130 ft | 3 kts | 283° |
| 2026-04-26 23:07 | 39.18556 | -76.68141 | 126 ft | 10 kts | 235° |
| 2026-04-26 23:07 | 39.18495 | -76.68160 | 127 ft | 6 kts | 142° |
| 2026-04-26 23:07 | 39.18491 | -76.68156 | 127 ft | 0 kts | 142° |
| 2026-04-26 23:08 | 39.18486 | -76.68151 | 127 ft | 10 kts | 142° |
| 2026-04-26 23:08 | 39.18211 | -76.67897 | 132 ft | 84 kts | 143° |
| 2026-04-26 23:08 | 39.17553 | -76.67286 | 141 ft | 144 kts | 144° |
| 2026-04-26 23:09 | 39.16640 | -76.66451 | 372 ft | 171 kts | 142° |
| 2026-04-26 23:09 | 39.15655 | -76.65575 | 1052 ft | 172 kts | 141° |
| 2026-04-26 23:09 | 39.14703 | -76.64706 | 1766 ft | 172 kts | 139° |
| 2026-04-26 23:09 | 39.13707 | -76.63773 | 2308 ft | 184 kts | 138° |
| 2026-04-26 23:10 | 39.12638 | -76.62762 | 2766 ft | 200 kts | 138° |
| 2026-04-26 23:10 | 39.11467 | -76.61631 | 3224 ft | 217 kts | 136° |
| 2026-04-26 23:10 | 39.10282 | -76.60262 | 3608 ft | 239 kts | 130° |
| 2026-04-26 23:10 | 39.09082 | -76.58674 | 4130 ft | 257 kts | 129° |
| 2026-04-26 23:11 | 39.07817 | -76.56979 | 4820 ft | 268 kts | 129° |
| 2026-04-26 23:11 | 39.06532 | -76.55261 | 5663 ft | 272 kts | 129° |
| 2026-04-26 23:11 | 39.05214 | -76.53503 | 6510 ft | 275 kts | 129° |
| 2026-04-26 23:11 | 39.03877 | -76.51717 | 7299 ft | 281 kts | 129° |
| 2026-04-26 23:12 | 39.02515 | -76.49898 | 8037 ft | 287 kts | 129° |
| 2026-04-26 23:12 | 39.01124 | -76.48042 | 8765 ft | 294 kts | 130° |
| 2026-04-26 23:12 | 38.99486 | -76.46439 | 9416 ft | 307 kts | 155° |
| 2026-04-26 23:12 | 38.97363 | -76.45958 | 10095 ft | 315 kts | 186° |
| 2026-04-26 23:13 | 38.95223 | -76.46592 | 10664 ft | 323 kts | 198° |
| 2026-04-26 23:13 | 38.93033 | -76.47503 | 11034 ft | 341 kts | 199° |
| 2026-04-26 23:13 | 38.90723 | -76.48455 | 11356 ft | 359 kts | 198° |
| 2026-04-26 23:13 | 38.88257 | -76.49419 | 11669 ft | 376 kts | 197° |
| 2026-04-26 23:14 | 38.85696 | -76.50387 | 11976 ft | 392 kts | 198° |
| 2026-04-26 23:14 | 38.83103 | -76.51515 | 12493 ft | 399 kts | 201° |
| 2026-04-26 23:14 | 38.80478 | -76.52794 | 13184 ft | 402 kts | 202° |
| 2026-04-26 23:14 | 38.77861 | -76.54085 | 13700 ft | 407 kts | 202° |
| 2026-04-26 23:15 | 38.75206 | -76.55399 | 13967 ft | 421 kts | 202° |
| 2026-04-26 23:15 | 38.72383 | -76.56792 | 13991 ft | 440 kts | 202° |
| 2026-04-26 23:15 | 38.69526 | -76.58195 | 13979 ft | 447 kts | 202° |
| 2026-04-26 23:15 | 38.66577 | -76.59600 | 14128 ft | 454 kts | 201° |
| 2026-04-26 23:16 | 38.63589 | -76.60977 | 14756 ft | 455 kts | 201° |
| 2026-04-26 23:16 | 38.60601 | -76.62344 | 15374 ft | 456 kts | 201° |
| 2026-04-26 23:16 | 38.57586 | -76.63728 | 15899 ft | 459 kts | 201° |
| 2026-04-26 23:16 | 38.54591 | -76.65107 | 16407 ft | 462 kts | 201° |
| 2026-04-26 23:17 | 38.51570 | -76.66500 | 16899 ft | 465 kts | 201° |
| 2026-04-26 23:17 | 38.48518 | -76.67907 | 17378 ft | 467 kts | 201° |
| 2026-04-26 23:17 | 38.45454 | -76.69316 | 17831 ft | 470 kts | 201° |
| 2026-04-26 23:17 | 38.42281 | -76.70455 | 18262 ft | 475 kts | 192° |
| 2026-04-26 23:18 | 38.39000 | -76.70911 | 18709 ft | 479 kts | 182° |
| 2026-04-26 23:18 | 38.35658 | -76.70675 | 19301 ft | 477 kts | 173° |
| 2026-04-26 23:18 | 38.32417 | -76.70147 | 20215 ft | 468 kts | 172° |
| 2026-04-26 23:18 | 38.29211 | -76.69582 | 21171 ft | 459 kts | 172° |
| 2026-04-26 23:19 | 38.26089 | -76.69037 | 22005 ft | 453 kts | 172° |
| 2026-04-26 23:19 | 38.22995 | -76.68514 | 22537 ft | 454 kts | 172° |
| 2026-04-26 23:19 | 38.19836 | -76.67996 | 22969 ft | 458 kts | 172° |
| 2026-04-26 23:19 | 38.16645 | -76.67481 | 23431 ft | 461 kts | 172° |
| 2026-04-26 23:20 | 38.13475 | -76.66974 | 23880 ft | 464 kts | 172° |
| 2026-04-26 23:20 | 38.10251 | -76.66489 | 24294 ft | 467 kts | 174° |
| 2026-04-26 23:20 | 38.07041 | -76.66199 | 24724 ft | 469 kts | 177° |
| 2026-04-26 23:20 | 38.03761 | -76.65977 | 25167 ft | 471 kts | 177° |
| 2026-04-26 23:21 | 38.00466 | -76.65761 | 25604 ft | 472 kts | 177° |
| 2026-04-26 23:21 | 37.97195 | -76.65546 | 26007 ft | 474 kts | 177° |
| 2026-04-26 23:21 | 37.93878 | -76.65327 | 26396 ft | 476 kts | 177° |
| 2026-04-26 23:21 | 37.90560 | -76.65108 | 26786 ft | 477 kts | 177° |
| 2026-04-26 23:22 | 37.87267 | -76.64888 | 27155 ft | 479 kts | 177° |
| 2026-04-26 23:22 | 37.83928 | -76.64666 | 27493 ft | 480 kts | 177° |
| 2026-04-26 23:22 | 37.80607 | -76.64445 | 27814 ft | 482 kts | 178° |
| 2026-04-26 23:22 | 37.77250 | -76.64222 | 28090 ft | 484 kts | 178° |
| 2026-04-26 23:23 | 37.73893 | -76.63998 | 28443 ft | 483 kts | 178° |
| 2026-04-26 23:23 | 37.70524 | -76.63774 | 28854 ft | 481 kts | 178° |
| 2026-04-26 23:23 | 37.67216 | -76.63554 | 29249 ft | 480 kts | 178° |
| 2026-04-26 23:23 | 37.63857 | -76.63332 | 29614 ft | 478 kts | 178° |
| 2026-04-26 23:24 | 37.60545 | -76.63232 | 29971 ft | 476 kts | 181° |
| 2026-04-26 23:24 | 37.57256 | -76.63354 | 30316 ft | 474 kts | 185° |
| 2026-04-26 23:24 | 37.53984 | -76.63708 | 30643 ft | 472 kts | 188° |
| 2026-04-26 23:24 | 37.50726 | -76.64158 | 30975 ft | 471 kts | 188° |
| 2026-04-26 23:25 | 37.47456 | -76.64613 | 31314 ft | 469 kts | 188° |
| 2026-04-26 23:25 | 37.44226 | -76.65059 | 31628 ft | 467 kts | 188° |
| 2026-04-26 23:25 | 37.40989 | -76.65505 | 31912 ft | 466 kts | 188° |
| 2026-04-26 23:25 | 37.37789 | -76.65945 | 32197 ft | 465 kts | 188° |
| 2026-04-26 23:26 | 37.34552 | -76.66389 | 32491 ft | 464 kts | 188° |
| 2026-04-26 23:26 | 37.31353 | -76.66826 | 32760 ft | 463 kts | 188° |
| 2026-04-26 23:26 | 37.28165 | -76.67260 | 33057 ft | 461 kts | 188° |
| 2026-04-26 23:26 | 37.24974 | -76.67694 | 33345 ft | 459 kts | 188° |
| 2026-04-26 23:27 | 37.21820 | -76.68123 | 33593 ft | 458 kts | 188° |
| 2026-04-26 23:27 | 37.18641 | -76.68555 | 33836 ft | 457 kts | 188° |
| 2026-04-26 23:27 | 37.15475 | -76.68986 | 34094 ft | 456 kts | 188° |
| 2026-04-26 23:27 | 37.12301 | -76.69416 | 34347 ft | 455 kts | 188° |
| 2026-04-26 23:28 | 37.09167 | -76.69840 | 34549 ft | 453 kts | 188° |
| 2026-04-26 23:28 | 37.06021 | -76.70265 | 34726 ft | 453 kts | 188° |
| 2026-04-26 23:28 | 37.02925 | -76.70683 | 34884 ft | 452 kts | 188° |
| 2026-04-26 23:28 | 36.99768 | -76.71113 | 35052 ft | 452 kts | 188° |
| 2026-04-26 23:29 | 36.96670 | -76.71532 | 35197 ft | 451 kts | 188° |
| 2026-04-26 23:29 | 36.93549 | -76.71951 | 35348 ft | 451 kts | 188° |
| 2026-04-26 23:29 | 36.90431 | -76.72372 | 35485 ft | 451 kts | 188° |
| 2026-04-26 23:29 | 36.87304 | -76.72793 | 35620 ft | 451 kts | 188° |
| 2026-04-26 23:30 | 36.84168 | -76.73215 | 35762 ft | 451 kts | 188° |
| 2026-04-26 23:30 | 36.81047 | -76.73635 | 35894 ft | 451 kts | 188° |
| 2026-04-26 23:30 | 36.77971 | -76.74049 | 36022 ft | 451 kts | 188° |
| 2026-04-26 23:30 | 36.74821 | -76.74472 | 36130 ft | 451 kts | 188° |
| 2026-04-26 23:31 | 36.71695 | -76.74892 | 36261 ft | 451 kts | 188° |
| 2026-04-26 23:31 | 36.68600 | -76.75306 | 36381 ft | 451 kts | 189° |
| 2026-04-26 23:31 | 36.65456 | -76.75728 | 36485 ft | 452 kts | 189° |
| 2026-04-26 23:32 | 36.59193 | -76.76566 | 36686 ft | 453 kts | 189° |
| 2026-04-26 23:32 | 36.56061 | -76.76984 | 36800 ft | 453 kts | 189° |
| 2026-04-26 23:32 | 36.52951 | -76.77399 | 36890 ft | 454 kts | 189° |
| 2026-04-26 23:33 | 36.46650 | -76.78240 | 37059 ft | 455 kts | 189° |
| 2026-04-26 23:33 | 36.40347 | -76.79079 | 37229 ft | 455 kts | 189° |
| 2026-04-26 23:34 | 36.34055 | -76.79916 | 37356 ft | 457 kts | 189° |
| 2026-04-26 23:34 | 36.27737 | -76.80756 | 37488 ft | 458 kts | 189° |
| 2026-04-26 23:35 | 36.21415 | -76.81593 | 37628 ft | 458 kts | 189° |
| 2026-04-26 23:35 | 36.15077 | -76.82432 | 37750 ft | 459 kts | 189° |
| 2026-04-26 23:36 | 36.08715 | -76.83273 | 37890 ft | 459 kts | 189° |
| 2026-04-26 23:36 | 36.02370 | -76.84110 | 38012 ft | 459 kts | 189° |
| 2026-04-26 23:37 | 35.96020 | -76.84959 | 38099 ft | 459 kts | 190° |
| 2026-04-26 23:37 | 35.89725 | -76.86343 | 38098 ft | 457 kts | 197° |
| 2026-04-26 23:38 | 35.83597 | -76.88535 | 38108 ft | 455 kts | 201° |
| 2026-04-26 23:38 | 35.77541 | -76.90939 | 38096 ft | 455 kts | 201° |
| 2026-04-26 23:39 | 35.71544 | -76.93308 | 38103 ft | 455 kts | 201° |
| 2026-04-26 23:39 | 35.65512 | -76.95688 | 38092 ft | 455 kts | 201° |
| 2026-04-26 23:40 | 35.59484 | -76.98056 | 38085 ft | 455 kts | 201° |
| 2026-04-26 23:40 | 35.53433 | -77.00435 | 38087 ft | 456 kts | 201° |
| 2026-04-26 23:41 | 35.47407 | -77.02797 | 38086 ft | 456 kts | 201° |
| 2026-04-26 23:41 | 35.41344 | -77.05171 | 38085 ft | 456 kts | 202° |
| 2026-04-26 23:42 | 35.35321 | -77.07526 | 38075 ft | 456 kts | 202° |
| 2026-04-26 23:42 | 35.26258 | -77.11063 | 38069 ft | 456 kts | 202° |
| 2026-04-26 23:43 | 35.20223 | -77.13414 | 38070 ft | 456 kts | 202° |
| 2026-04-26 23:43 | 35.14174 | -77.15766 | 38070 ft | 457 kts | 202° |
| 2026-04-26 23:44 | 35.08134 | -77.18111 | 38067 ft | 457 kts | 202° |
| 2026-04-26 23:44 | 35.02070 | -77.20460 | 38065 ft | 457 kts | 202° |
| 2026-04-26 23:45 | 34.96002 | -77.22807 | 38069 ft | 456 kts | 202° |
| 2026-04-26 23:45 | 34.89967 | -77.25140 | 38071 ft | 456 kts | 202° |
| 2026-04-26 23:46 | 34.83891 | -77.27484 | 38067 ft | 456 kts | 202° |
| 2026-04-26 23:46 | 34.77858 | -77.29808 | 38066 ft | 456 kts | 202° |
| 2026-04-26 23:47 | 34.71783 | -77.32146 | 38062 ft | 455 kts | 202° |
| 2026-04-26 23:47 | 34.65758 | -77.34461 | 38062 ft | 455 kts | 202° |
| 2026-04-26 23:48 | 34.59763 | -77.36761 | 38042 ft | 455 kts | 203° |
| 2026-04-26 23:48 | 34.53747 | -77.39066 | 38053 ft | 455 kts | 203° |
| 2026-04-26 23:49 | 34.47621 | -77.41115 | 38040 ft | 458 kts | 198° |
| 2026-04-26 23:49 | 34.41289 | -77.42472 | 38068 ft | 460 kts | 195° |
| 2026-04-26 23:50 | 34.34980 | -77.43702 | 38035 ft | 459 kts | 195° |
| 2026-04-26 23:50 | 34.28690 | -77.44930 | 38031 ft | 459 kts | 195° |
| 2026-04-26 23:51 | 34.22391 | -77.46158 | 38029 ft | 458 kts | 195° |
| 2026-04-26 23:51 | 34.16128 | -77.47379 | 38016 ft | 457 kts | 195° |
| 2026-04-26 23:52 | 34.09837 | -77.48604 | 38018 ft | 457 kts | 195° |
| 2026-04-26 23:52 | 34.03565 | -77.49824 | 38006 ft | 457 kts | 195° |
| 2026-04-26 23:53 | 33.97287 | -77.51042 | 38013 ft | 457 kts | 195° |
| 2026-04-26 23:53 | 33.91018 | -77.52257 | 38007 ft | 456 kts | 195° |
| 2026-04-26 23:54 | 33.84668 | -77.53484 | 38012 ft | 456 kts | 195° |
| 2026-04-26 23:54 | 33.78400 | -77.54695 | 38015 ft | 456 kts | 195° |
| 2026-04-26 23:55 | 33.72131 | -77.55906 | 38008 ft | 457 kts | 195° |
| 2026-04-26 23:55 | 33.65822 | -77.57121 | 38016 ft | 457 kts | 196° |
| 2026-04-26 23:56 | 33.59575 | -77.58324 | 37998 ft | 456 kts | 196° |
| 2026-04-26 23:56 | 33.53310 | -77.59615 | 38000 ft | 455 kts | 197° |
| 2026-04-26 23:57 | 33.47082 | -77.60988 | 38003 ft | 455 kts | 197° |
| 2026-04-26 23:57 | 33.40890 | -77.62347 | 38004 ft | 455 kts | 197° |
| 2026-04-26 23:58 | 33.34652 | -77.63708 | 37996 ft | 456 kts | 197° |
| 2026-04-26 23:58 | 33.28377 | -77.65070 | 37986 ft | 454 kts | 197° |
| 2026-04-26 23:59 | 33.22166 | -77.66419 | 37994 ft | 454 kts | 197° |
| 2026-04-26 23:59 | 33.15890 | -77.67779 | 37985 ft | 455 kts | 197° |
| 2026-04-27 00:00 | 33.09657 | -77.69126 | 37981 ft | 455 kts | 197° |
| 2026-04-27 00:00 | 33.03411 | -77.70472 | 37978 ft | 455 kts | 197° |
| 2026-04-27 00:01 | 32.97206 | -77.71809 | 37983 ft | 455 kts | 197° |
| 2026-04-27 00:01 | 32.90988 | -77.73148 | 37984 ft | 454 kts | 197° |
| 2026-04-27 00:02 | 32.84742 | -77.74493 | 37962 ft | 453 kts | 197° |
| 2026-04-27 00:02 | 32.78509 | -77.75831 | 37982 ft | 453 kts | 197° |
| 2026-04-27 00:03 | 32.72322 | -77.77157 | 37989 ft | 453 kts | 197° |
| 2026-04-27 00:03 | 32.66130 | -77.78482 | 37971 ft | 452 kts | 197° |
| 2026-04-27 00:04 | 32.59901 | -77.79814 | 37985 ft | 453 kts | 197° |
| 2026-04-27 00:04 | 32.53685 | -77.81141 | 37979 ft | 453 kts | 197° |
| 2026-04-27 00:05 | 32.47486 | -77.82463 | 37967 ft | 453 kts | 197° |
| 2026-04-27 00:05 | 32.41273 | -77.83785 | 37977 ft | 453 kts | 197° |
| 2026-04-27 00:06 | 32.35075 | -77.85101 | 37963 ft | 453 kts | 197° |
| 2026-04-27 00:06 | 32.28820 | -77.86430 | 37968 ft | 454 kts | 197° |
| 2026-04-27 00:07 | 32.22612 | -77.87745 | 37953 ft | 453 kts | 197° |
| 2026-04-27 00:07 | 32.16391 | -77.89062 | 37936 ft | 455 kts | 197° |
| 2026-04-27 00:08 | 32.10136 | -77.90386 | 37955 ft | 456 kts | 197° |
| 2026-04-27 00:08 | 32.03886 | -77.91705 | 37945 ft | 456 kts | 197° |
| 2026-04-27 00:09 | 31.97636 | -77.93020 | 37942 ft | 454 kts | 197° |
| 2026-04-27 00:09 | 31.91417 | -77.94327 | 37937 ft | 454 kts | 198° |
| 2026-04-27 00:10 | 31.85147 | -77.95647 | 37933 ft | 456 kts | 198° |
| 2026-04-27 00:10 | 31.78844 | -77.96970 | 37930 ft | 458 kts | 198° |
| 2026-04-27 00:11 | 31.72590 | -77.98283 | 37929 ft | 459 kts | 198° |
| 2026-04-27 00:11 | 31.66297 | -77.99598 | 37930 ft | 458 kts | 198° |
| 2026-04-27 00:12 | 31.59988 | -78.00916 | 37927 ft | 459 kts | 198° |
| 2026-04-27 00:12 | 31.53714 | -78.02227 | 37928 ft | 460 kts | 198° |
| 2026-04-27 00:13 | 31.47378 | -78.03549 | 37926 ft | 461 kts | 198° |
| 2026-04-27 00:13 | 31.41066 | -78.04861 | 37924 ft | 462 kts | 198° |
| 2026-04-27 00:14 | 31.34701 | -78.06186 | 37925 ft | 463 kts | 198° |
| 2026-04-27 00:14 | 31.28389 | -78.07494 | 37921 ft | 463 kts | 198° |
| 2026-04-27 00:15 | 31.22007 | -78.08820 | 37921 ft | 464 kts | 198° |
| 2026-04-27 00:15 | 31.15641 | -78.10139 | 37920 ft | 466 kts | 198° |
| 2026-04-27 00:16 | 31.09258 | -78.11455 | 37919 ft | 465 kts | 198° |
| 2026-04-27 00:16 | 31.02885 | -78.12773 | 37920 ft | 468 kts | 198° |
| 2026-04-27 00:17 | 30.96460 | -78.14097 | 37911 ft | 468 kts | 198° |
| 2026-04-27 00:17 | 30.90048 | -78.15419 | 37908 ft | 469 kts | 198° |
| 2026-04-27 00:18 | 30.83602 | -78.16745 | 37911 ft | 469 kts | 198° |
| 2026-04-27 00:18 | 30.77170 | -78.18063 | 37913 ft | 469 kts | 198° |
| 2026-04-27 00:19 | 30.70704 | -78.19390 | 37916 ft | 470 kts | 198° |
| 2026-04-27 00:19 | 30.64235 | -78.20717 | 37924 ft | 470 kts | 197° |
| 2026-04-27 00:20 | 30.57790 | -78.22034 | 37924 ft | 471 kts | 197° |
| 2026-04-27 00:20 | 30.51371 | -78.23343 | 37928 ft | 470 kts | 197° |
| 2026-04-27 00:21 | 30.44921 | -78.24660 | 37927 ft | 470 kts | 197° |
| 2026-04-27 00:21 | 30.38469 | -78.25975 | 37926 ft | 470 kts | 197° |
| 2026-04-27 00:22 | 30.32020 | -78.27287 | 37912 ft | 472 kts | 197° |
| 2026-04-27 00:22 | 30.25542 | -78.28603 | 37917 ft | 471 kts | 197° |
| 2026-04-27 00:23 | 30.19077 | -78.29913 | 37912 ft | 471 kts | 197° |
| 2026-04-27 00:23 | 30.12616 | -78.31224 | 37911 ft | 472 kts | 197° |
| 2026-04-27 00:24 | 30.06162 | -78.32529 | 37909 ft | 471 kts | 197° |
| 2026-04-27 00:24 | 29.99679 | -78.33841 | 37908 ft | 473 kts | 197° |
| 2026-04-27 00:25 | 29.93199 | -78.35148 | 37912 ft | 473 kts | 197° |
| 2026-04-27 00:25 | 29.86716 | -78.36453 | 37911 ft | 473 kts | 197° |
| 2026-04-27 00:26 | 29.80241 | -78.37757 | 37913 ft | 473 kts | 197° |
| 2026-04-27 00:26 | 29.73786 | -78.39056 | 37849 ft | 474 kts | 197° |
| 2026-04-27 00:27 | 29.70547 | -78.39708 | 37549 ft | 473 kts | 196° |
| 2026-04-27 00:27 | 29.67270 | -78.40363 | 37254 ft | 473 kts | 197° |
| 2026-04-27 00:27 | 29.64017 | -78.40924 | 36967 ft | 476 kts | 192° |
| 2026-04-27 00:27 | 29.60719 | -78.41119 | 36916 ft | 481 kts | 186° |
| 2026-04-27 00:28 | 29.53957 | -78.40286 | 36911 ft | 492 kts | 172° |
| 2026-04-27 00:28 | 29.47398 | -78.37748 | 36915 ft | 500 kts | 159° |
| 2026-04-27 00:29 | 29.41157 | -78.34254 | 36917 ft | 500 kts | 157° |
| 2026-04-27 00:29 | 29.34950 | -78.30724 | 36921 ft | 499 kts | 157° |
| 2026-04-27 00:30 | 29.28680 | -78.27200 | 36923 ft | 498 kts | 158° |
| 2026-04-27 00:30 | 29.22478 | -78.23744 | 36924 ft | 498 kts | 158° |
| 2026-04-27 00:31 | 29.16245 | -78.20276 | 36926 ft | 497 kts | 158° |
| 2026-04-27 00:31 | 29.10024 | -78.16823 | 36927 ft | 497 kts | 157° |
| 2026-04-27 00:32 | 29.03790 | -78.13365 | 36932 ft | 498 kts | 158° |
| 2026-04-27 00:32 | 28.97578 | -78.09925 | 36928 ft | 497 kts | 158° |
| 2026-04-27 00:33 | 28.91343 | -78.06475 | 36932 ft | 496 kts | 158° |
| 2026-04-27 00:33 | 28.85090 | -78.03023 | 36931 ft | 495 kts | 158° |
| 2026-04-27 00:34 | 28.78907 | -77.99612 | 36933 ft | 494 kts | 158° |
| 2026-04-27 00:34 | 28.72719 | -77.96204 | 36931 ft | 495 kts | 158° |
| 2026-04-27 00:35 | 28.66526 | -77.92796 | 36929 ft | 493 kts | 158° |
| 2026-04-27 00:35 | 28.60319 | -77.89386 | 36932 ft | 493 kts | 158° |
| 2026-04-27 00:36 | 28.54144 | -77.85998 | 36934 ft | 493 kts | 158° |
| 2026-04-27 00:36 | 28.47958 | -77.82608 | 36933 ft | 493 kts | 158° |
| 2026-04-27 00:37 | 28.41806 | -77.79241 | 36938 ft | 492 kts | 158° |
| 2026-04-27 00:37 | 28.35642 | -77.75871 | 36928 ft | 492 kts | 158° |
| 2026-04-27 00:38 | 28.29488 | -77.72510 | 36932 ft | 491 kts | 158° |
| 2026-04-27 00:38 | 28.23305 | -77.69137 | 36933 ft | 489 kts | 158° |
| 2026-04-27 00:39 | 28.17252 | -77.65584 | 36932 ft | 493 kts | 152° |
| 2026-04-27 00:39 | 28.11573 | -77.61239 | 36939 ft | 495 kts | 144° |
| 2026-04-27 00:40 | 28.06352 | -77.56045 | 36939 ft | 498 kts | 136° |
| 2026-04-27 00:40 | 28.01569 | -77.50398 | 36940 ft | 499 kts | 135° |
| 2026-04-27 00:41 | 27.96800 | -77.44726 | 36946 ft | 499 kts | 135° |
| 2026-04-27 00:41 | 27.92001 | -77.39056 | 36940 ft | 500 kts | 135° |
| 2026-04-27 00:42 | 27.87168 | -77.33369 | 36943 ft | 500 kts | 136° |
| 2026-04-27 00:42 | 27.82357 | -77.27720 | 36947 ft | 499 kts | 136° |
| 2026-04-27 00:43 | 27.77541 | -77.22071 | 36947 ft | 498 kts | 136° |
| 2026-04-27 00:43 | 27.72744 | -77.16454 | 36951 ft | 499 kts | 136° |
| 2026-04-27 00:44 | 27.67906 | -77.10798 | 36950 ft | 499 kts | 135° |
| 2026-04-27 00:44 | 27.63096 | -77.05177 | 36953 ft | 498 kts | 136° |
| 2026-04-27 00:45 | 27.58306 | -76.99592 | 36952 ft | 498 kts | 136° |
| 2026-04-27 00:45 | 27.53483 | -76.93973 | 36956 ft | 498 kts | 136° |
| 2026-04-27 00:46 | 27.48654 | -76.88357 | 36957 ft | 498 kts | 136° |
| 2026-04-27 00:46 | 27.43831 | -76.82753 | 36958 ft | 498 kts | 136° |
| 2026-04-27 00:47 | 27.39009 | -76.77158 | 36957 ft | 497 kts | 136° |
| 2026-04-27 00:47 | 27.34189 | -76.71576 | 36964 ft | 496 kts | 136° |
| 2026-04-27 00:48 | 27.29360 | -76.65987 | 36959 ft | 496 kts | 136° |
| 2026-04-27 00:48 | 27.24556 | -76.60438 | 36963 ft | 496 kts | 135° |
| 2026-04-27 00:49 | 27.19712 | -76.54845 | 36960 ft | 496 kts | 135° |
| 2026-04-27 00:49 | 27.14900 | -76.49296 | 36966 ft | 497 kts | 135° |
| 2026-04-27 00:50 | 27.07669 | -76.40973 | 36968 ft | 497 kts | 135° |
| 2026-04-27 00:51 | 27.02836 | -76.35362 | 37214 ft | 498 kts | 135° |
| 2026-04-27 00:51 | 27.00461 | -76.32573 | 37354 ft | 497 kts | 135° |
| 2026-04-27 00:51 | 26.98054 | -76.29745 | 37370 ft | 499 kts | 135° |
| 2026-04-27 00:52 | 26.93239 | -76.24096 | 37412 ft | 502 kts | 135° |
| 2026-04-27 00:52 | 26.88416 | -76.18443 | 37606 ft | 502 kts | 135° |
| 2026-04-27 00:53 | 26.83603 | -76.12811 | 37792 ft | 501 kts | 135° |
| 2026-04-27 00:53 | 26.81190 | -76.09994 | 37921 ft | 500 kts | 135° |
| 2026-04-27 00:53 | 26.78797 | -76.07198 | 38011 ft | 500 kts | 135° |
| 2026-04-27 00:54 | 26.73984 | -76.01585 | 38242 ft | 498 kts | 135° |
| 2026-04-27 00:54 | 26.71607 | -75.98813 | 38505 ft | 494 kts | 135° |
| 2026-04-27 00:54 | 26.69222 | -75.96036 | 38666 ft | 492 kts | 135° |
| 2026-04-27 00:55 | 26.64474 | -75.90511 | 38795 ft | 493 kts | 135° |
| 2026-04-27 00:55 | 26.59720 | -75.84985 | 38964 ft | 492 kts | 135° |
| 2026-04-27 00:56 | 26.54992 | -75.79496 | 38967 ft | 492 kts | 135° |
| 2026-04-27 00:56 | 26.50236 | -75.73986 | 38967 ft | 493 kts | 135° |
| 2026-04-27 00:57 | 26.45465 | -75.68464 | 38966 ft | 494 kts | 135° |
| 2026-04-27 00:57 | 26.40689 | -75.62942 | 38965 ft | 495 kts | 135° |
| 2026-04-27 00:58 | 26.35925 | -75.57440 | 38971 ft | 495 kts | 135° |
| 2026-04-27 00:58 | 26.31130 | -75.51912 | 38957 ft | 495 kts | 135° |
| 2026-04-27 00:59 | 26.26365 | -75.46422 | 38964 ft | 496 kts | 135° |
| 2026-04-27 00:59 | 26.21565 | -75.40904 | 38960 ft | 495 kts | 135° |
| 2026-04-27 01:00 | 26.16757 | -75.35378 | 38960 ft | 496 kts | 135° |
| 2026-04-27 01:00 | 26.11948 | -75.29858 | 38949 ft | 497 kts | 136° |
| 2026-04-27 01:01 | 26.07122 | -75.24327 | 38958 ft | 497 kts | 136° |
| 2026-04-27 01:01 | 26.02303 | -75.18813 | 38947 ft | 497 kts | 137° |
| 2026-04-27 01:02 | 25.97473 | -75.13296 | 38969 ft | 499 kts | 137° |
| 2026-04-27 01:02 | 25.92667 | -75.07808 | 38963 ft | 498 kts | 137° |
| 2026-04-27 01:03 | 25.87824 | -75.02288 | 38967 ft | 497 kts | 137° |
| 2026-04-27 01:03 | 25.83001 | -74.96790 | 38966 ft | 497 kts | 137° |
| 2026-04-27 01:04 | 25.78202 | -74.91331 | 38975 ft | 495 kts | 137° |
| 2026-04-27 01:04 | 25.73368 | -74.85844 | 38970 ft | 495 kts | 137° |
| 2026-04-27 01:05 | 25.68555 | -74.80382 | 38978 ft | 495 kts | 137° |
| 2026-04-27 01:05 | 25.63755 | -74.74947 | 38975 ft | 496 kts | 137° |
| 2026-04-27 01:06 | 25.58946 | -74.69500 | 38977 ft | 495 kts | 138° |
| 2026-04-27 01:06 | 25.54105 | -74.64031 | 38975 ft | 495 kts | 138° |
| 2026-04-27 01:07 | 25.49300 | -74.58606 | 38974 ft | 493 kts | 138° |
| 2026-04-27 01:07 | 25.44494 | -74.53185 | 38973 ft | 492 kts | 138° |
| 2026-04-27 01:08 | 25.39721 | -74.47808 | 38965 ft | 491 kts | 139° |
| 2026-04-27 01:08 | 25.34922 | -74.42413 | 38960 ft | 491 kts | 138° |
| 2026-04-27 01:09 | 25.30153 | -74.37056 | 38965 ft | 491 kts | 138° |
| 2026-04-27 01:09 | 25.25370 | -74.31686 | 38959 ft | 489 kts | 139° |
| 2026-04-27 01:10 | 25.20597 | -74.26337 | 38968 ft | 490 kts | 139° |
| 2026-04-27 01:10 | 25.15814 | -74.20978 | 38961 ft | 488 kts | 139° |
| 2026-04-27 01:11 | 25.11071 | -74.15677 | 38960 ft | 488 kts | 139° |
| 2026-04-27 01:11 | 25.06280 | -74.10324 | 38965 ft | 488 kts | 140° |
| 2026-04-27 01:12 | 25.01535 | -74.05030 | 38973 ft | 486 kts | 140° |
| 2026-04-27 01:12 | 24.96757 | -73.99710 | 38960 ft | 488 kts | 139° |
| 2026-04-27 01:13 | 24.91991 | -73.94408 | 38962 ft | 489 kts | 139° |
| 2026-04-27 01:13 | 24.87188 | -73.89063 | 38973 ft | 488 kts | 139° |
| 2026-04-27 01:14 | 24.82422 | -73.83764 | 38963 ft | 488 kts | 140° |
| 2026-04-27 01:14 | 24.77663 | -73.78487 | 38952 ft | 486 kts | 140° |
| 2026-04-27 01:15 | 24.72888 | -73.73198 | 38969 ft | 488 kts | 140° |
| 2026-04-27 01:15 | 24.68120 | -73.67915 | 38962 ft | 488 kts | 140° |
| 2026-04-27 01:16 | 24.63313 | -73.62601 | 38962 ft | 490 kts | 140° |
| 2026-04-27 01:16 | 24.58619 | -73.57158 | 38968 ft | 494 kts | 135° |
| 2026-04-27 01:17 | 24.54453 | -73.51142 | 38964 ft | 497 kts | 128° |
| 2026-04-27 01:17 | 24.50849 | -73.44655 | 38965 ft | 500 kts | 124° |
| 2026-04-27 01:18 | 24.47320 | -73.38061 | 38970 ft | 502 kts | 124° |
| 2026-04-27 01:18 | 24.43780 | -73.31480 | 38970 ft | 500 kts | 125° |
| 2026-04-27 01:19 | 24.40232 | -73.24927 | 38967 ft | 500 kts | 125° |
| 2026-04-27 01:19 | 24.36676 | -73.18372 | 38968 ft | 501 kts | 126° |
| 2026-04-27 01:20 | 24.33111 | -73.11811 | 38971 ft | 500 kts | 126° |
| 2026-04-27 01:20 | 24.29543 | -73.05255 | 38971 ft | 501 kts | 126° |
| 2026-04-27 01:21 | 24.25989 | -72.98729 | 38973 ft | 501 kts | 126° |
| 2026-04-27 01:21 | 24.22395 | -72.92142 | 38969 ft | 502 kts | 126° |
| 2026-04-27 01:22 | 24.18827 | -72.85616 | 38970 ft | 501 kts | 126° |
| 2026-04-27 01:22 | 24.15251 | -72.79074 | 38971 ft | 501 kts | 126° |
| 2026-04-27 01:23 | 24.11666 | -72.72527 | 38968 ft | 501 kts | 126° |
| 2026-04-27 01:23 | 24.08089 | -72.66007 | 38972 ft | 501 kts | 127° |
| 2026-04-27 01:24 | 24.04485 | -72.59448 | 38971 ft | 503 kts | 126° |
| 2026-04-27 01:24 | 24.00895 | -72.52911 | 38971 ft | 501 kts | 127° |
| 2026-04-27 01:25 | 23.97291 | -72.46368 | 38974 ft | 501 kts | 127° |
| 2026-04-27 01:25 | 23.93695 | -72.39838 | 38970 ft | 501 kts | 127° |
| 2026-04-27 01:26 | 23.90101 | -72.33330 | 38964 ft | 500 kts | 128° |
| 2026-04-27 01:26 | 23.86494 | -72.26823 | 38973 ft | 502 kts | 128° |
| 2026-04-27 01:27 | 23.82871 | -72.20290 | 38968 ft | 502 kts | 127° |
| 2026-04-27 01:27 | 23.79250 | -72.13751 | 38970 ft | 502 kts | 128° |
| 2026-04-27 01:28 | 23.75638 | -72.07246 | 38971 ft | 503 kts | 128° |
| 2026-04-27 01:28 | 23.72013 | -72.00721 | 38970 ft | 503 kts | 128° |
| 2026-04-27 01:29 | 23.68398 | -71.94219 | 38974 ft | 502 kts | 128° |
| 2026-04-27 01:29 | 23.64753 | -71.87676 | 38974 ft | 502 kts | 128° |
| 2026-04-27 01:30 | 23.61119 | -71.81257 | 38972 ft | 499 kts | 130° |
| 2026-04-27 01:30 | 23.57054 | -71.75155 | 38976 ft | 495 kts | 134° |
| 2026-04-27 01:31 | 23.52905 | -71.69201 | 38973 ft | 494 kts | 134° |
| 2026-04-27 01:31 | 23.48761 | -71.63241 | 38973 ft | 495 kts | 135° |
| 2026-04-27 01:32 | 23.44606 | -71.57265 | 38975 ft | 497 kts | 135° |
| 2026-04-27 01:32 | 23.40442 | -71.51267 | 38972 ft | 496 kts | 135° |
| 2026-04-27 01:33 | 23.36272 | -71.45275 | 38967 ft | 495 kts | 135° |
| 2026-04-27 01:33 | 23.32107 | -71.39295 | 38968 ft | 495 kts | 135° |
| 2026-04-27 01:34 | 23.27956 | -71.33342 | 38962 ft | 494 kts | 135° |
| 2026-04-27 01:34 | 23.23784 | -71.27364 | 38961 ft | 494 kts | 135° |
| 2026-04-27 01:35 | 23.19610 | -71.21392 | 38962 ft | 494 kts | 135° |
| 2026-04-27 01:35 | 23.15449 | -71.15441 | 38958 ft | 493 kts | 135° |
| 2026-04-27 01:36 | 23.11316 | -71.09543 | 38957 ft | 493 kts | 136° |
| 2026-04-27 01:36 | 23.07159 | -71.03617 | 38955 ft | 493 kts | 135° |
| 2026-04-27 01:37 | 23.03000 | -70.97688 | 38955 ft | 492 kts | 135° |
| 2026-04-27 01:37 | 22.98840 | -70.91767 | 38956 ft | 492 kts | 135° |
| 2026-04-27 01:38 | 22.94694 | -70.85870 | 38954 ft | 493 kts | 135° |
| 2026-04-27 01:38 | 22.90521 | -70.79951 | 38952 ft | 492 kts | 135° |
| 2026-04-27 01:39 | 22.86325 | -70.74032 | 38953 ft | 492 kts | 135° |
| 2026-04-27 01:39 | 22.82173 | -70.68172 | 38951 ft | 491 kts | 135° |
| 2026-04-27 01:40 | 22.77994 | -70.62276 | 38953 ft | 490 kts | 135° |
| 2026-04-27 01:40 | 22.73830 | -70.56404 | 38952 ft | 489 kts | 136° |
| 2026-04-27 01:41 | 22.69675 | -70.50555 | 38952 ft | 489 kts | 135° |
| 2026-04-27 01:41 | 22.65508 | -70.44692 | 38952 ft | 489 kts | 135° |
| 2026-04-27 01:42 | 22.61342 | -70.38839 | 38950 ft | 488 kts | 136° |
| 2026-04-27 01:42 | 22.57214 | -70.33046 | 38949 ft | 489 kts | 136° |
| 2026-04-27 01:43 | 22.53061 | -70.27226 | 38952 ft | 488 kts | 136° |
| 2026-04-27 01:43 | 22.48918 | -70.21423 | 38952 ft | 487 kts | 136° |
| 2026-04-27 01:44 | 22.44785 | -70.15640 | 38950 ft | 487 kts | 136° |
| 2026-04-27 01:44 | 22.40647 | -70.09853 | 38952 ft | 487 kts | 136° |
| 2026-04-27 01:45 | 22.36512 | -70.04073 | 38951 ft | 486 kts | 136° |
| 2026-04-27 01:45 | 22.32366 | -69.98295 | 38953 ft | 486 kts | 136° |
| 2026-04-27 01:46 | 22.28232 | -69.92537 | 38949 ft | 485 kts | 136° |
| 2026-04-27 01:46 | 22.24074 | -69.86757 | 38949 ft | 485 kts | 136° |
| 2026-04-27 01:47 | 22.19947 | -69.81033 | 38948 ft | 484 kts | 136° |
| 2026-04-27 01:47 | 22.15790 | -69.75275 | 38950 ft | 484 kts | 136° |
| 2026-04-27 01:48 | 22.11621 | -69.69501 | 38954 ft | 486 kts | 136° |
| 2026-04-27 01:48 | 22.07477 | -69.63763 | 38951 ft | 485 kts | 136° |
| 2026-04-27 01:49 | 22.03335 | -69.58028 | 38948 ft | 484 kts | 136° |
| 2026-04-27 01:49 | 21.99202 | -69.52319 | 38957 ft | 485 kts | 136° |
| 2026-04-27 01:50 | 21.95067 | -69.46611 | 38961 ft | 485 kts | 136° |
| 2026-04-27 01:50 | 21.90912 | -69.40881 | 38968 ft | 484 kts | 136° |
| 2026-04-27 01:51 | 21.86766 | -69.35168 | 38971 ft | 484 kts | 137° |
| 2026-04-27 01:51 | 21.82622 | -69.29468 | 38971 ft | 485 kts | 137° |
| 2026-04-27 01:52 | 21.78478 | -69.23769 | 38972 ft | 484 kts | 137° |
| 2026-04-27 01:52 | 21.74317 | -69.18057 | 38970 ft | 485 kts | 137° |
| 2026-04-27 01:53 | 21.70150 | -69.12340 | 38973 ft | 486 kts | 137° |
| 2026-04-27 01:53 | 21.66010 | -69.06664 | 38971 ft | 485 kts | 137° |
| 2026-04-27 01:54 | 21.61845 | -69.00964 | 38975 ft | 485 kts | 137° |
| 2026-04-27 01:54 | 21.57683 | -68.95272 | 38971 ft | 484 kts | 137° |
| 2026-04-27 01:55 | 21.53498 | -68.89555 | 38972 ft | 484 kts | 137° |
| 2026-04-27 01:55 | 21.49338 | -68.83881 | 38970 ft | 485 kts | 137° |
| 2026-04-27 01:56 | 21.43101 | -68.75378 | 38971 ft | 485 kts | 137° |
| 2026-04-27 01:56 | 21.38904 | -68.69666 | 38975 ft | 485 kts | 137° |
| 2026-04-27 01:57 | 21.34768 | -68.64040 | 38969 ft | 483 kts | 137° |
| 2026-04-27 01:57 | 21.30576 | -68.58347 | 38973 ft | 485 kts | 137° |
| 2026-04-27 01:58 | 21.26404 | -68.52685 | 38972 ft | 485 kts | 137° |
| 2026-04-27 01:58 | 21.22253 | -68.47056 | 38975 ft | 483 kts | 137° |
| 2026-04-27 01:59 | 21.18105 | -68.41441 | 38973 ft | 483 kts | 137° |
| 2026-04-27 01:59 | 21.13932 | -68.35797 | 38973 ft | 484 kts | 137° |
| 2026-04-27 02:00 | 21.09749 | -68.30142 | 38971 ft | 485 kts | 137° |
| 2026-04-27 02:00 | 21.05555 | -68.24474 | 38973 ft | 484 kts | 137° |
| 2026-04-27 02:01 | 21.01386 | -68.18848 | 38973 ft | 484 kts | 137° |
| 2026-04-27 02:01 | 20.97191 | -68.13193 | 38974 ft | 484 kts | 138° |
| 2026-04-27 02:02 | 20.93008 | -68.07557 | 38974 ft | 483 kts | 137° |
| 2026-04-27 02:02 | 20.88839 | -68.01946 | 38977 ft | 484 kts | 137° |
| 2026-04-27 02:03 | 20.84653 | -67.96298 | 38973 ft | 483 kts | 137° |
| 2026-04-27 02:03 | 20.80526 | -67.90633 | 38974 ft | 485 kts | 137° |
| 2026-04-27 02:04 | 20.76408 | -67.84963 | 38973 ft | 484 kts | 136° |
| 2026-04-27 02:04 | 20.72276 | -67.79282 | 38974 ft | 484 kts | 136° |
| 2026-04-27 02:05 | 20.68136 | -67.73603 | 38973 ft | 483 kts | 136° |
| 2026-04-27 02:05 | 20.64010 | -67.67943 | 38973 ft | 481 kts | 136° |
| 2026-04-27 02:06 | 20.59899 | -67.62315 | 38974 ft | 482 kts | 136° |
| 2026-04-27 02:06 | 20.55764 | -67.56660 | 38975 ft | 482 kts | 136° |
| 2026-04-27 02:07 | 20.51675 | -67.51065 | 38974 ft | 480 kts | 136° |
| 2026-04-27 02:07 | 20.47565 | -67.45450 | 38976 ft | 480 kts | 136° |
| 2026-04-27 02:08 | 20.43449 | -67.39831 | 38974 ft | 478 kts | 136° |
| 2026-04-27 02:08 | 20.39372 | -67.34276 | 38972 ft | 478 kts | 137° |
| 2026-04-27 02:09 | 20.35274 | -67.28709 | 38974 ft | 477 kts | 136° |
| 2026-04-27 02:09 | 20.31193 | -67.23166 | 38975 ft | 477 kts | 136° |
| 2026-04-27 02:10 | 20.27092 | -67.17594 | 38978 ft | 476 kts | 136° |
| 2026-04-27 02:10 | 20.23026 | -67.12076 | 38985 ft | 477 kts | 136° |
| 2026-04-27 02:11 | 20.20957 | -67.09270 | 38757 ft | 478 kts | 136° |
| 2026-04-27 02:11 | 20.18914 | -67.06496 | 38459 ft | 474 kts | 136° |
| 2026-04-27 02:11 | 20.16910 | -67.03776 | 38170 ft | 471 kts | 136° |
| 2026-04-27 02:11 | 20.14881 | -67.01021 | 37797 ft | 468 kts | 136° |
| 2026-04-27 02:12 | 20.12885 | -66.98316 | 37331 ft | 468 kts | 136° |
| 2026-04-27 02:12 | 20.10867 | -66.95587 | 36746 ft | 470 kts | 136° |
| 2026-04-27 02:12 | 20.08848 | -66.92855 | 36056 ft | 471 kts | 136° |
| 2026-04-27 02:12 | 20.06824 | -66.90121 | 35361 ft | 472 kts | 135° |
| 2026-04-27 02:13 | 20.04782 | -66.87388 | 34616 ft | 471 kts | 137° |
| 2026-04-27 02:13 | 20.02631 | -66.84817 | 33854 ft | 469 kts | 141° |
| 2026-04-27 02:13 | 20.00296 | -66.82396 | 33023 ft | 466 kts | 145° |
| 2026-04-27 02:13 | 19.97827 | -66.80185 | 32233 ft | 465 kts | 149° |
| 2026-04-27 02:14 | 19.95198 | -66.78153 | 31338 ft | 465 kts | 153° |
| 2026-04-27 02:14 | 19.92493 | -66.76361 | 30475 ft | 465 kts | 157° |
| 2026-04-27 02:14 | 19.89638 | -66.74749 | 29605 ft | 465 kts | 160° |
| 2026-04-27 02:14 | 19.86719 | -66.73208 | 28667 ft | 469 kts | 160° |
| 2026-04-27 02:15 | 19.83752 | -66.71657 | 27824 ft | 471 kts | 160° |
| 2026-04-27 02:15 | 19.80848 | -66.70137 | 27274 ft | 466 kts | 160° |
| 2026-04-27 02:15 | 19.77957 | -66.68615 | 26742 ft | 461 kts | 159° |
| 2026-04-27 02:15 | 19.75101 | -66.67109 | 26202 ft | 456 kts | 159° |
| 2026-04-27 02:16 | 19.72260 | -66.65611 | 25665 ft | 452 kts | 159° |
| 2026-04-27 02:16 | 19.69449 | -66.64131 | 25132 ft | 447 kts | 159° |
| 2026-04-27 02:16 | 19.66680 | -66.62673 | 24596 ft | 442 kts | 159° |
| 2026-04-27 02:16 | 19.63948 | -66.61235 | 24065 ft | 438 kts | 159° |
| 2026-04-27 02:17 | 19.61230 | -66.59806 | 23525 ft | 434 kts | 159° |
| 2026-04-27 02:17 | 19.58514 | -66.58377 | 22981 ft | 430 kts | 159° |
| 2026-04-27 02:17 | 19.55860 | -66.56982 | 22439 ft | 426 kts | 158° |
| 2026-04-27 02:17 | 19.53218 | -66.55596 | 21908 ft | 426 kts | 158° |
| 2026-04-27 02:18 | 19.50466 | -66.54158 | 21337 ft | 440 kts | 158° |
| 2026-04-27 02:18 | 19.47738 | -66.52730 | 20757 ft | 440 kts | 158° |
| 2026-04-27 02:18 | 19.45007 | -66.51296 | 20173 ft | 438 kts | 157° |
| 2026-04-27 02:18 | 19.42257 | -66.49850 | 19580 ft | 434 kts | 157° |
| 2026-04-27 02:19 | 19.39576 | -66.48441 | 19001 ft | 431 kts | 157° |
| 2026-04-27 02:19 | 19.36881 | -66.47026 | 18418 ft | 428 kts | 156° |
| 2026-04-27 02:19 | 19.34230 | -66.45636 | 17841 ft | 426 kts | 156° |
| 2026-04-27 02:19 | 19.31562 | -66.44237 | 17246 ft | 424 kts | 156° |
| 2026-04-27 02:20 | 19.28921 | -66.42852 | 16652 ft | 420 kts | 156° |
| 2026-04-27 02:20 | 19.26328 | -66.41492 | 16071 ft | 417 kts | 156° |
| 2026-04-27 02:20 | 19.23744 | -66.40136 | 15599 ft | 409 kts | 156° |
| 2026-04-27 02:20 | 19.21224 | -66.38814 | 15147 ft | 399 kts | 156° |
| 2026-04-27 02:21 | 19.18798 | -66.37542 | 14507 ft | 382 kts | 156° |
| 2026-04-27 02:21 | 19.16469 | -66.36321 | 13866 ft | 365 kts | 156° |
| 2026-04-27 02:21 | 19.14245 | -66.35159 | 13295 ft | 348 kts | 156° |
| 2026-04-27 02:21 | 19.12078 | -66.34154 | 12770 ft | 330 kts | 162° |
| 2026-04-27 02:22 | 19.09936 | -66.33412 | 12302 ft | 313 kts | 168° |
| 2026-04-27 02:22 | 19.07880 | -66.32912 | 11929 ft | 300 kts | 172° |
| 2026-04-27 02:22 | 19.05819 | -66.32498 | 11535 ft | 299 kts | 172° |
| 2026-04-27 02:22 | 19.03768 | -66.32091 | 11128 ft | 297 kts | 172° |
| 2026-04-27 02:23 | 19.01746 | -66.31688 | 10783 ft | 294 kts | 171° |
| 2026-04-27 02:23 | 18.99749 | -66.31289 | 10513 ft | 290 kts | 171° |
| 2026-04-27 02:23 | 18.97758 | -66.30888 | 10372 ft | 291 kts | 171° |
| 2026-04-27 02:23 | 18.95747 | -66.30484 | 10244 ft | 291 kts | 171° |
| 2026-04-27 02:24 | 18.93752 | -66.30082 | 10134 ft | 290 kts | 171° |
| 2026-04-27 02:24 | 18.91769 | -66.29683 | 10042 ft | 290 kts | 171° |
| 2026-04-27 02:24 | 18.89786 | -66.29284 | 9966 ft | 290 kts | 171° |
| 2026-04-27 02:24 | 18.87783 | -66.28880 | 9674 ft | 289 kts | 171° |
| 2026-04-27 02:25 | 18.85821 | -66.28485 | 9348 ft | 287 kts | 170° |
| 2026-04-27 02:25 | 18.83845 | -66.28087 | 9010 ft | 285 kts | 170° |
| 2026-04-27 02:25 | 18.81899 | -66.27696 | 8666 ft | 283 kts | 170° |
| 2026-04-27 02:25 | 18.79986 | -66.27311 | 8329 ft | 281 kts | 170° |
| 2026-04-27 02:26 | 18.78045 | -66.26920 | 7996 ft | 279 kts | 169° |
| 2026-04-27 02:26 | 18.76126 | -66.26533 | 7649 ft | 278 kts | 169° |
| 2026-04-27 02:26 | 18.74248 | -66.26155 | 7313 ft | 276 kts | 169° |
| 2026-04-27 02:26 | 18.72360 | -66.25775 | 6983 ft | 274 kts | 169° |
| 2026-04-27 02:27 | 18.70489 | -66.25399 | 6668 ft | 271 kts | 169° |
| 2026-04-27 02:27 | 18.68650 | -66.25030 | 6319 ft | 263 kts | 169° |
| 2026-04-27 02:27 | 18.66880 | -66.24674 | 5943 ft | 252 kts | 169° |
| 2026-04-27 02:27 | 18.65183 | -66.24332 | 5621 ft | 245 kts | 168° |
| 2026-04-27 02:28 | 18.63499 | -66.23994 | 5346 ft | 241 kts | 168° |
| 2026-04-27 02:28 | 18.61883 | -66.23667 | 5114 ft | 235 kts | 168° |
| 2026-04-27 02:28 | 18.60273 | -66.23343 | 4814 ft | 234 kts | 168° |
| 2026-04-27 02:28 | 18.58684 | -66.23023 | 4560 ft | 230 kts | 168° |
| 2026-04-27 02:29 | 18.57130 | -66.22711 | 4282 ft | 223 kts | 168° |
| 2026-04-27 02:29 | 18.55600 | -66.22404 | 3993 ft | 219 kts | 168° |
| 2026-04-27 02:29 | 18.54132 | -66.22109 | 3691 ft | 211 kts | 168° |
| 2026-04-27 02:29 | 18.52690 | -66.21819 | 3383 ft | 203 kts | 168° |
| 2026-04-27 02:30 | 18.51344 | -66.21549 | 3222 ft | 194 kts | 168° |
| 2026-04-27 02:30 | 18.50016 | -66.21282 | 2947 ft | 191 kts | 168° |
| 2026-04-27 02:30 | 18.48723 | -66.21023 | 2697 ft | 185 kts | 168° |
| 2026-04-27 02:30 | 18.47461 | -66.20770 | 2484 ft | 181 kts | 168° |
| 2026-04-27 02:31 | 18.46223 | -66.20520 | 2258 ft | 179 kts | 167° |
| 2026-04-27 02:31 | 18.44999 | -66.20240 | 2218 ft | 180 kts | 159° |
| 2026-04-27 02:31 | 18.43982 | -66.19509 | 2165 ft | 177 kts | 131° |
| 2026-04-27 02:31 | 18.43424 | -66.18402 | 2105 ft | 170 kts | 104° |
| 2026-04-27 02:32 | 18.43304 | -66.17169 | 2138 ft | 171 kts | 92° |
| 2026-04-27 02:32 | 18.43344 | -66.15913 | 2163 ft | 171 kts | 89° |
| 2026-04-27 02:32 | 18.43395 | -66.14655 | 2194 ft | 176 kts | 90° |
| 2026-04-27 02:32 | 18.43413 | -66.13338 | 2127 ft | 176 kts | 91° |
| 2026-04-27 02:33 | 18.43410 | -66.12083 | 1952 ft | 171 kts | 91° |
| 2026-04-27 02:33 | 18.43399 | -66.10838 | 1720 ft | 170 kts | 92° |
| 2026-04-27 02:33 | 18.43387 | -66.09583 | 1491 ft | 168 kts | 93° |
| 2026-04-27 02:33 | 18.43379 | -66.08397 | 1261 ft | 157 kts | 92° |
| 2026-04-27 02:34 | 18.43376 | -66.07299 | 1058 ft | 146 kts | 92° |
| 2026-04-27 02:34 | 18.43373 | -66.06220 | 886 ft | 145 kts | 92° |
| 2026-04-27 02:34 | 18.43370 | -66.05167 | 709 ft | 145 kts | 92° |
| 2026-04-27 02:34 | 18.43375 | -66.04103 | 526 ft | 144 kts | 92° |
| 2026-04-27 02:35 | 18.43370 | -66.03036 | 342 ft | 144 kts | 93° |
| 2026-04-27 02:35 | 18.43358 | -66.01990 | 165 ft | 144 kts | 91° |
| 2026-04-27 02:35 | 18.43356 | -66.00942 | 29 ft | 136 kts | 92° |
| 2026-04-27 02:35 | 18.43350 | -66.00046 | 17 ft | 101 kts | 91° |
| 2026-04-27 02:36 | 18.43352 | -65.99483 | 17 ft | 63 kts | 91° |
| 2026-04-27 02:36 | 18.43353 | -65.99153 | 20 ft | 25 kts | 84° |
| 2026-04-27 02:36 | 18.43376 | -65.99088 | 20 ft | 10 kts | 36° |
| 2026-04-27 02:36 | 18.43450 | -65.99093 | 20 ft | 12 kts | 314° |
| 2026-04-27 02:37 | 18.43463 | -65.99184 | 19 ft | 13 kts | 269° |
| 2026-04-27 02:37 | 18.43463 | -65.99367 | 17 ft | 45 kts | 270° |
| 2026-04-27 02:37 | 18.43462 | -65.99609 | 17 ft | 29 kts | 270° |
| 2026-04-27 02:37 | 18.43462 | -65.99824 | 17 ft | 28 kts | 270° |
| 2026-04-27 02:38 | 18.43464 | -65.99979 | 18 ft | 13 kts | 270° |
| 2026-04-27 02:38 | 18.43464 | -66.00077 | 19 ft | 13 kts | 270° |
| 2026-04-27 02:38 | 18.43464 | -66.00170 | 19 ft | 8 kts | 270° |
| 2026-04-27 02:38 | 18.43471 | -66.00202 | 19 ft | 0 kts | 297° |
| 2026-04-27 02:39 | 18.43477 | -66.00211 | 19 ft | 5 kts | 311° |
| 2026-04-27 02:39 | 18.43531 | -66.00222 | 20 ft | 10 kts | 14° |
| 2026-04-27 02:39 | 18.43576 | -66.00187 | 21 ft | 8 kts | 73° |
| 2026-04-27 02:39 | 18.43588 | -66.00131 | 22 ft | 5 kts | 65° |
| 2026-04-27 02:40 | 18.43613 | -66.00123 | 22 ft | 1 kts | 346° |
| 2026-04-27 02:40 | 18.43622 | -66.00126 | 22 ft | 1 kts | 345° |
| 2026-04-27 02:40 | 18.43623 | -66.00126 | 22 ft | 0 kts | 345° |